Punta Gialla — IWUC — position and weather

sailwx.info

Track history (hours):
 
Tides and Currents Weather Stations Pressure Air Temp Water Temp Dewpoint Dewpoint Depression Visibility Wind Speed Wind Dir Waves Ship Positions

Punta Gialla

Last reported at 2016-May-24 20:33 UTC. Time now 2016-May-24 21:32 UTC.
Position N 44°25' E 008°55'.

Length 52 m; draft 1.7 m.

Type: Tanker. MMSI: 247077500.

Date/timePositionNaut miles runAvg speedWind from/ knotsBaromVisibWave heightAir tempDewpointWater temp
2016-May-24 20:33N 44°25' E 008°55'0 0.0
2016-May-24 19:33N 44°25' E 008°55'0 0.0
2016-May-24 18:34N 44°25' E 008°55'0 0.0
2016-May-24 17:33N 44°25' E 008°55'1 0.5
2016-May-24 16:33N 44°24' E 008°54'0 0.0
2016-May-24 15:33N 44°24' E 008°54'0 0.4
2016-May-24 14:33N 44°24' E 008°55'0 0.0
2016-May-24 13:33N 44°24' E 008°55'0 0.0
2016-May-24 12:33N 44°24' E 008°55'1 1.2
2016-May-24 11:34N 44°24' E 008°53'0 0.2
2016-May-24 10:33N 44°24' E 008°53'0 0.0
2016-May-24 09:33N 44°24' E 008°53'1 0.8
2016-May-24 08:33N 44°24' E 008°54'0 0.3
2016-May-24 07:33N 44°24' E 008°54'0 0.0
2016-May-24 06:33N 44°24' E 008°54'0 0.0
2016-May-24 05:33N 44°24' E 008°54'0 0.0
2016-May-24 04:33N 44°24' E 008°54'0 0.0
2016-May-24 03:33N 44°24' E 008°54'0 0.0
2016-May-24 02:33N 44°24' E 008°54'0 0.0
2016-May-24 01:33N 44°24' E 008°54'0 0.0
2016-May-24 00:33N 44°24' E 008°54'0 0.0
2016-May-23 23:33N 44°24' E 008°54'0 0.0
2016-May-23 22:33N 44°24' E 008°54'0 0.0
2016-May-23 21:33N 44°24' E 008°54'0 0.0
2016-May-23 20:33N 44°24' E 008°54'0 0.0
2016-May-23 19:33N 44°24' E 008°54'0 0.0
2016-May-23 18:33N 44°24' E 008°54'0 0.0
2016-May-23 17:33N 44°24' E 008°54'0 0.0
2016-May-23 16:33N 44°24' E 008°54'0 0.0
2016-May-23 15:33N 44°24' E 008°54'0 0.0
2016-May-21 12:26N 44°24' E 008°54'0 0.0
2016-May-21 11:33N 44°24' E 008°54'0 0.0
2016-May-21 10:33N 44°24' E 008°54'0 0.0
2016-May-21 09:33N 44°24' E 008°54'0 0.0
2016-May-21 08:33N 44°24' E 008°54'0 0.0
2016-May-21 07:33N 44°24' E 008°54'0 0.0
2016-May-21 06:33N 44°24' E 008°54'0 0.0
2016-May-21 05:33N 44°24' E 008°54'0 0.0
2016-May-21 04:33N 44°24' E 008°54'0 0.0
2016-May-21 03:33N 44°24' E 008°54'0 0.0
2016-May-21 02:33N 44°24' E 008°54'0 0.0
2016-May-21 01:33N 44°24' E 008°54'0 0.0
2016-May-21 00:33N 44°24' E 008°54'0 0.0
2016-May-20 23:33N 44°24' E 008°54'0 0.0
2016-May-20 22:33N 44°24' E 008°54'0 0.0
2016-May-20 21:34N 44°24' E 008°54'2 2.0
2016-May-20 20:33N 44°23' E 008°52'8 7.5
2016-May-20 19:34N 44°19' E 008°43'8 8.2
2016-May-20 18:33N 44°16' E 008°32'4 3.8
2016-May-20 17:33N 44°16' E 008°27'0 0.0
2016-May-20 16:33N 44°16' E 008°27'0 0.0
2016-May-20 15:28N 44°16' E 008°27'3 3.6
2016-May-20 14:33N 44°16' E 008°31'7 7.2
2016-May-20 13:33N 44°18' E 008°41'7 7.2
2016-May-20 12:33N 44°22' E 008°50'4 4.3
2016-May-20 11:33N 44°24' E 008°55'0 0.0
2016-May-20 10:33N 44°24' E 008°55'0 0.0
2016-May-20 09:33N 44°24' E 008°55'0 0.1
2016-May-20 08:33N 44°24' E 008°55'0 0.4
2016-May-20 07:33N 44°24' E 008°54'0 0.0
2016-May-20 06:34N 44°24' E 008°54'0 0.0
2016-May-20 05:33N 44°24' E 008°54'0 0.0
2016-May-20 04:33N 44°24' E 008°54'0 0.0
2016-May-20 03:33N 44°24' E 008°54'0 0.0
2016-May-20 02:33N 44°24' E 008°54'0 0.0
2016-May-20 01:33N 44°24' E 008°54'0 0.0
2016-May-20 00:33N 44°24' E 008°54'0 0.0
2016-May-19 23:33N 44°24' E 008°54'0 0.0
2016-May-19 22:33N 44°24' E 008°54'0 0.0
2016-May-19 21:33N 44°24' E 008°54'0 0.0
2016-May-19 20:33N 44°24' E 008°54'0 0.0
2016-May-19 19:33N 44°24' E 008°54'0 0.0
2016-May-19 18:34N 44°24' E 008°54'0 0.0
2016-May-19 17:33N 44°24' E 008°54'1 0.8
2016-May-19 16:33N 44°24' E 008°56'0 0.0
2016-May-19 15:34N 44°24' E 008°56'0 0.0
2016-May-19 14:33N 44°24' E 008°56'0 0.0
2016-May-19 13:33N 44°24' E 008°56'0 0.0
2016-May-19 12:33N 44°24' E 008°56'0 0.0
2016-May-19 11:34N 44°24' E 008°56'0 0.0
2016-May-19 10:33N 44°24' E 008°56'1 0.8
2016-May-19 09:33N 44°24' E 008°54'0 0.0
2016-May-19 08:33N 44°24' E 008°54'0 0.0
2016-May-19 07:33N 44°24' E 008°54'0 0.0
2016-May-19 06:33N 44°24' E 008°54'0 0.0
2016-May-19 05:34N 44°24' E 008°54'0 0.0
2016-May-19 04:33N 44°24' E 008°54'0 0.0
2016-May-19 03:33N 44°24' E 008°54'0 0.0
2016-May-19 02:34N 44°24' E 008°54'0 0.0
2016-May-19 01:34N 44°24' E 008°54'0 0.0
2016-May-19 00:33N 44°24' E 008°54'0 0.0
2016-May-18 23:34N 44°24' E 008°54'0 0.0
2016-May-18 22:33N 44°24' E 008°54'0 0.0
2016-May-18 21:33N 44°24' E 008°54'0 0.0
2016-May-18 20:33N 44°24' E 008°54'0 0.0
2016-May-18 19:33N 44°24' E 008°54'0 0.0
2016-May-18 18:33N 44°24' E 008°54'0 0.0
2016-May-18 17:33N 44°24' E 008°54'0 0.0
2016-May-18 16:33N 44°24' E 008°54'0 0.0
2016-May-18 15:33N 44°24' E 008°54'0 0.0
2016-May-18 14:33N 44°24' E 008°54'0 0.0
2016-May-18 13:33N 44°24' E 008°54'0 0.0
2016-May-18 12:34N 44°24' E 008°54'0 0.0
2016-May-18 11:34N 44°24' E 008°54'0 0.0
2016-May-18 10:33N 44°24' E 008°54'0 0.0
2016-May-18 09:34N 44°24' E 008°54'0 0.0
2016-May-18 08:34N 44°24' E 008°54'0 0.0
2016-May-18 07:33N 44°24' E 008°54'0 0.0
2016-May-18 06:34N 44°24' E 008°54'0 0.0
2016-May-18 05:33N 44°24' E 008°54'0 0.0
2016-May-18 04:34N 44°24' E 008°54'0 0.0
2016-May-18 03:34N 44°24' E 008°54'0 0.0
2016-May-18 02:34N 44°24' E 008°54'0 0.0
2016-May-18 01:34N 44°24' E 008°54'0 0.0
2016-May-18 00:34N 44°24' E 008°54'0 0.0
2016-May-17 23:33N 44°24' E 008°54'0 0.0
2016-May-17 22:34N 44°24' E 008°54'0 0.0
2016-May-17 21:34N 44°24' E 008°54'0 0.0
2016-May-17 20:33N 44°24' E 008°54'0 0.0
2016-May-17 19:34N 44°24' E 008°54'0 0.0
2016-May-17 18:34N 44°24' E 008°54'0 0.0
2016-May-17 17:33N 44°24' E 008°54'0 0.2
2016-May-17 16:34N 44°24' E 008°54'1 0.9
2016-May-17 15:33N 44°24' E 008°53'0 0.0
2016-May-17 14:34N 44°24' E 008°53'0 0.0
2016-May-17 13:34N 44°24' E 008°53'0 0.0
2016-May-17 12:34N 44°24' E 008°53'0 0.0
2016-May-17 11:34N 44°24' E 008°53'0 0.0
2016-May-17 10:34N 44°24' E 008°53'0 0.0
2016-May-17 09:34N 44°24' E 008°53'0 0.0
2016-May-17 08:33N 44°24' E 008°53'0 0.0
2016-May-17 07:33N 44°24' E 008°53'1 0.6
2016-May-17 06:33N 44°24' E 008°54'0 0.5
2016-May-17 05:34N 44°24' E 008°54'0 0.0
2016-May-17 04:34N 44°24' E 008°54'0 0.0
2016-May-17 03:34N 44°24' E 008°54'0 0.0
2016-May-17 02:34N 44°24' E 008°54'0 0.0
2016-May-17 01:34N 44°24' E 008°54'0 0.0
2016-May-17 00:33N 44°24' E 008°54'0 0.0
2016-May-16 23:33N 44°24' E 008°54'0 0.0
2016-May-16 22:34N 44°24' E 008°54'0 0.0
2016-May-16 21:34N 44°24' E 008°54'0 0.0
2016-May-16 20:34N 44°24' E 008°54'0 0.0
2016-May-16 19:34N 44°24' E 008°54'0 0.0
2016-May-16 18:34N 44°24' E 008°54'0 0.0
2016-May-16 17:34N 44°24' E 008°54'0 0.0
2016-May-16 16:34N 44°24' E 008°54'0 0.0
2016-May-16 15:34N 44°24' E 008°54'0 0.0
2016-May-16 14:34N 44°24' E 008°54'0 0.0
2016-May-16 13:34N 44°24' E 008°54'0 0.0
2016-May-16 12:34N 44°24' E 008°54'0 0.0
2016-May-16 11:34N 44°24' E 008°54'0 0.0
2016-May-16 10:34N 44°24' E 008°54'0 0.0
2016-May-16 09:34N 44°24' E 008°54'0 0.0
2016-May-16 08:34N 44°24' E 008°54'0 0.0
2016-May-16 07:34N 44°24' E 008°54'0 0.0
2016-May-16 06:34N 44°24' E 008°54'0 0.0
2016-May-16 05:34N 44°24' E 008°54'0 0.0
2016-May-16 04:34N 44°24' E 008°54'0 0.0
2016-May-16 03:33N 44°24' E 008°54'0 0.0
2016-May-16 02:33N 44°24' E 008°54'0 0.0
2016-May-16 01:34N 44°24' E 008°54'0 0.0
2016-May-16 00:34N 44°24' E 008°54'0 0.0
2016-May-15 23:33N 44°24' E 008°54'0 0.0
2016-May-15 22:34N 44°24' E 008°54'0 0.0
2016-May-15 21:34N 44°24' E 008°54'0 0.0
2016-May-15 20:34N 44°24' E 008°54'0 0.0
2016-May-15 19:34N 44°24' E 008°54'0 0.0
2016-May-15 18:34N 44°24' E 008°54'0 0.0
2016-May-15 17:34N 44°24' E 008°54'0 0.0
2016-May-15 16:34N 44°24' E 008°54'0 0.0
2016-May-15 15:33N 44°24' E 008°54'0 0.0
2016-May-15 14:34N 44°24' E 008°54'0 0.0
2016-May-15 13:34N 44°24' E 008°54'0 0.0
2016-May-15 12:33N 44°24' E 008°54'0 0.0
2016-May-15 11:34N 44°24' E 008°54'0 0.0
2016-May-15 10:34N 44°24' E 008°54'0 0.0
2016-May-15 09:34N 44°24' E 008°54'0 0.0
2016-May-15 08:34N 44°24' E 008°54'0 0.0
2016-May-15 07:34N 44°24' E 008°54'0 0.0
2016-May-15 06:34N 44°24' E 008°54'0 0.0
2016-May-15 05:34N 44°24' E 008°54'0 0.0
2016-May-15 04:34N 44°24' E 008°54'0 0.0
2016-May-15 03:34N 44°24' E 008°54'0 0.0
2016-May-15 02:34N 44°24' E 008°54'0 0.0
2016-May-15 01:34N 44°24' E 008°54'0 0.0
2016-May-15 00:33N 44°24' E 008°54'0 0.0
2016-May-14 23:34N 44°24' E 008°54'0 0.0
2016-May-14 22:33N 44°24' E 008°54'0 0.0
2016-May-14 21:33N 44°24' E 008°54'  
Track history (hours):
 
Tides and Currents Weather Stations Pressure Air Temp Water Temp Dewpoint Dewpoint Depression Visibility Wind Speed Wind Dir Waves Ship Positions

Punta Gialla

Last reported at 2016-May-24 20:33 UTC. Time now 2016-May-24 21:32 UTC.
Position N 44°25' E 008°55'.

Length 52 m; draft 1.7 m.

Type: Tanker. MMSI: 247077500.

Date/timePositionNaut miles runAvg speedWind from/ knotsBaromVisibWave heightAir tempDewpointWater temp
2016-May-24 20:33N 44°25' E 008°55'0 0.0
2016-May-24 19:33N 44°25' E 008°55'0 0.0
2016-May-24 18:34N 44°25' E 008°55'0 0.0
2016-May-24 17:33N 44°25' E 008°55'1 0.5
2016-May-24 16:33N 44°24' E 008°54'0 0.0
2016-May-24 15:33N 44°24' E 008°54'0 0.4
2016-May-24 14:33N 44°24' E 008°55'0 0.0
2016-May-24 13:33N 44°24' E 008°55'0 0.0
2016-May-24 12:33N 44°24' E 008°55'1 1.2
2016-May-24 11:34N 44°24' E 008°53'0 0.2
2016-May-24 10:33N 44°24' E 008°53'0 0.0
2016-May-24 09:33N 44°24' E 008°53'1 0.8
2016-May-24 08:33N 44°24' E 008°54'0 0.3
2016-May-24 07:33N 44°24' E 008°54'0 0.0
2016-May-24 06:33N 44°24' E 008°54'0 0.0
2016-May-24 05:33N 44°24' E 008°54'0 0.0
2016-May-24 04:33N 44°24' E 008°54'0 0.0
2016-May-24 03:33N 44°24' E 008°54'0 0.0
2016-May-24 02:33N 44°24' E 008°54'0 0.0
2016-May-24 01:33N 44°24' E 008°54'0 0.0
2016-May-24 00:33N 44°24' E 008°54'0 0.0
2016-May-23 23:33N 44°24' E 008°54'0 0.0
2016-May-23 22:33N 44°24' E 008°54'0 0.0
2016-May-23 21:33N 44°24' E 008°54'0 0.0
2016-May-23 20:33N 44°24' E 008°54'0 0.0
2016-May-23 19:33N 44°24' E 008°54'0 0.0
2016-May-23 18:33N 44°24' E 008°54'0 0.0
2016-May-23 17:33N 44°24' E 008°54'0 0.0
2016-May-23 16:33N 44°24' E 008°54'0 0.0
2016-May-23 15:33N 44°24' E 008°54'0 0.0
2016-May-21 12:26N 44°24' E 008°54'0 0.0
2016-May-21 11:33N 44°24' E 008°54'0 0.0
2016-May-21 10:33N 44°24' E 008°54'0 0.0
2016-May-21 09:33N 44°24' E 008°54'0 0.0
2016-May-21 08:33N 44°24' E 008°54'0 0.0
2016-May-21 07:33N 44°24' E 008°54'0 0.0
2016-May-21 06:33N 44°24' E 008°54'0 0.0
2016-May-21 05:33N 44°24' E 008°54'0 0.0
2016-May-21 04:33N 44°24' E 008°54'0 0.0
2016-May-21 03:33N 44°24' E 008°54'0 0.0
2016-May-21 02:33N 44°24' E 008°54'0 0.0
2016-May-21 01:33N 44°24' E 008°54'0 0.0
2016-May-21 00:33N 44°24' E 008°54'0 0.0
2016-May-20 23:33N 44°24' E 008°54'0 0.0
2016-May-20 22:33N 44°24' E 008°54'0 0.0
2016-May-20 21:34N 44°24' E 008°54'2 2.0
2016-May-20 20:33N 44°23' E 008°52'8 7.5
2016-May-20 19:34N 44°19' E 008°43'8 8.2
2016-May-20 18:33N 44°16' E 008°32'4 3.8
2016-May-20 17:33N 44°16' E 008°27'0 0.0
2016-May-20 16:33N 44°16' E 008°27'0 0.0
2016-May-20 15:28N 44°16' E 008°27'3 3.6
2016-May-20 14:33N 44°16' E 008°31'7 7.2
2016-May-20 13:33N 44°18' E 008°41'7 7.2
2016-May-20 12:33N 44°22' E 008°50'4 4.3
2016-May-20 11:33N 44°24' E 008°55'0 0.0
2016-May-20 10:33N 44°24' E 008°55'0 0.0
2016-May-20 09:33N 44°24' E 008°55'0 0.1
2016-May-20 08:33N 44°24' E 008°55'0 0.4
2016-May-20 07:33N 44°24' E 008°54'0 0.0
2016-May-20 06:34N 44°24' E 008°54'0 0.0
2016-May-20 05:33N 44°24' E 008°54'0 0.0
2016-May-20 04:33N 44°24' E 008°54'0 0.0
2016-May-20 03:33N 44°24' E 008°54'0 0.0
2016-May-20 02:33N 44°24' E 008°54'0 0.0
2016-May-20 01:33N 44°24' E 008°54'0 0.0
2016-May-20 00:33N 44°24' E 008°54'0 0.0
2016-May-19 23:33N 44°24' E 008°54'0 0.0
2016-May-19 22:33N 44°24' E 008°54'0 0.0
2016-May-19 21:33N 44°24' E 008°54'0 0.0
2016-May-19 20:33N 44°24' E 008°54'0 0.0
2016-May-19 19:33N 44°24' E 008°54'0 0.0
2016-May-19 18:34N 44°24' E 008°54'0 0.0
2016-May-19 17:33N 44°24' E 008°54'1 0.8
2016-May-19 16:33N 44°24' E 008°56'0 0.0
2016-May-19 15:34N 44°24' E 008°56'0 0.0
2016-May-19 14:33N 44°24' E 008°56'0 0.0
2016-May-19 13:33N 44°24' E 008°56'0 0.0
2016-May-19 12:33N 44°24' E 008°56'0 0.0
2016-May-19 11:34N 44°24' E 008°56'0 0.0
2016-May-19 10:33N 44°24' E 008°56'1 0.8
2016-May-19 09:33N 44°24' E 008°54'0 0.0
2016-May-19 08:33N 44°24' E 008°54'0 0.0
2016-May-19 07:33N 44°24' E 008°54'0 0.0
2016-May-19 06:33N 44°24' E 008°54'0 0.0
2016-May-19 05:34N 44°24' E 008°54'0 0.0
2016-May-19 04:33N 44°24' E 008°54'0 0.0
2016-May-19 03:33N 44°24' E 008°54'0 0.0
2016-May-19 02:34N 44°24' E 008°54'0 0.0
2016-May-19 01:34N 44°24' E 008°54'0 0.0
2016-May-19 00:33N 44°24' E 008°54'0 0.0
2016-May-18 23:34N 44°24' E 008°54'0 0.0
2016-May-18 22:33N 44°24' E 008°54'0 0.0
2016-May-18 21:33N 44°24' E 008°54'0 0.0
2016-May-18 20:33N 44°24' E 008°54'0 0.0
2016-May-18 19:33N 44°24' E 008°54'0 0.0
2016-May-18 18:33N 44°24' E 008°54'0 0.0
2016-May-18 17:33N 44°24' E 008°54'0 0.0
2016-May-18 16:33N 44°24' E 008°54'0 0.0
2016-May-18 15:33N 44°24' E 008°54'0 0.0
2016-May-18 14:33N 44°24' E 008°54'0 0.0
2016-May-18 13:33N 44°24' E 008°54'0 0.0
2016-May-18 12:34N 44°24' E 008°54'0 0.0
2016-May-18 11:34N 44°24' E 008°54'0 0.0
2016-May-18 10:33N 44°24' E 008°54'0 0.0
2016-May-18 09:34N 44°24' E 008°54'0 0.0
2016-May-18 08:34N 44°24' E 008°54'0 0.0
2016-May-18 07:33N 44°24' E 008°54'0 0.0
2016-May-18 06:34N 44°24' E 008°54'0 0.0
2016-May-18 05:33N 44°24' E 008°54'0 0.0
2016-May-18 04:34N 44°24' E 008°54'0 0.0
2016-May-18 03:34N 44°24' E 008°54'0 0.0
2016-May-18 02:34N 44°24' E 008°54'0 0.0
2016-May-18 01:34N 44°24' E 008°54'0 0.0
2016-May-18 00:34N 44°24' E 008°54'0 0.0
2016-May-17 23:33N 44°24' E 008°54'0 0.0
2016-May-17 22:34N 44°24' E 008°54'0 0.0
2016-May-17 21:34N 44°24' E 008°54'0 0.0
2016-May-17 20:33N 44°24' E 008°54'0 0.0
2016-May-17 19:34N 44°24' E 008°54'0 0.0
2016-May-17 18:34N 44°24' E 008°54'0 0.0
2016-May-17 17:33N 44°24' E 008°54'0 0.2
2016-May-17 16:34N 44°24' E 008°54'1 0.9
2016-May-17 15:33N 44°24' E 008°53'0 0.0
2016-May-17 14:34N 44°24' E 008°53'0 0.0
2016-May-17 13:34N 44°24' E 008°53'0 0.0
2016-May-17 12:34N 44°24' E 008°53'0 0.0
2016-May-17 11:34N 44°24' E 008°53'0 0.0
2016-May-17 10:34N 44°24' E 008°53'0 0.0
2016-May-17 09:34N 44°24' E 008°53'0 0.0
2016-May-17 08:33N 44°24' E 008°53'0 0.0
2016-May-17 07:33N 44°24' E 008°53'1 0.6
2016-May-17 06:33N 44°24' E 008°54'0 0.5
2016-May-17 05:34N 44°24' E 008°54'0 0.0
2016-May-17 04:34N 44°24' E 008°54'0 0.0
2016-May-17 03:34N 44°24' E 008°54'0 0.0
2016-May-17 02:34N 44°24' E 008°54'0 0.0
2016-May-17 01:34N 44°24' E 008°54'0 0.0
2016-May-17 00:33N 44°24' E 008°54'0 0.0
2016-May-16 23:33N 44°24' E 008°54'0 0.0
2016-May-16 22:34N 44°24' E 008°54'0 0.0
2016-May-16 21:34N 44°24' E 008°54'0 0.0
2016-May-16 20:34N 44°24' E 008°54'0 0.0
2016-May-16 19:34N 44°24' E 008°54'0 0.0
2016-May-16 18:34N 44°24' E 008°54'0 0.0
2016-May-16 17:34N 44°24' E 008°54'0 0.0
2016-May-16 16:34N 44°24' E 008°54'0 0.0
2016-May-16 15:34N 44°24' E 008°54'0 0.0
2016-May-16 14:34N 44°24' E 008°54'0 0.0
2016-May-16 13:34N 44°24' E 008°54'0 0.0
2016-May-16 12:34N 44°24' E 008°54'0 0.0
2016-May-16 11:34N 44°24' E 008°54'0 0.0
2016-May-16 10:34N 44°24' E 008°54'0 0.0
2016-May-16 09:34N 44°24' E 008°54'0 0.0
2016-May-16 08:34N 44°24' E 008°54'0 0.0
2016-May-16 07:34N 44°24' E 008°54'0 0.0
2016-May-16 06:34N 44°24' E 008°54'0 0.0
2016-May-16 05:34N 44°24' E 008°54'0 0.0
2016-May-16 04:34N 44°24' E 008°54'0 0.0
2016-May-16 03:33N 44°24' E 008°54'0 0.0
2016-May-16 02:33N 44°24' E 008°54'0 0.0
2016-May-16 01:34N 44°24' E 008°54'0 0.0
2016-May-16 00:34N 44°24' E 008°54'0 0.0
2016-May-15 23:33N 44°24' E 008°54'0 0.0
2016-May-15 22:34N 44°24' E 008°54'0 0.0
2016-May-15 21:34N 44°24' E 008°54'0 0.0
2016-May-15 20:34N 44°24' E 008°54'0 0.0
2016-May-15 19:34N 44°24' E 008°54'0 0.0
2016-May-15 18:34N 44°24' E 008°54'0 0.0
2016-May-15 17:34N 44°24' E 008°54'0 0.0
2016-May-15 16:34N 44°24' E 008°54'0 0.0
2016-May-15 15:33N 44°24' E 008°54'0 0.0
2016-May-15 14:34N 44°24' E 008°54'0 0.0
2016-May-15 13:34N 44°24' E 008°54'0 0.0
2016-May-15 12:33N 44°24' E 008°54'0 0.0
2016-May-15 11:34N 44°24' E 008°54'0 0.0
2016-May-15 10:34N 44°24' E 008°54'0 0.0
2016-May-15 09:34N 44°24' E 008°54'0 0.0
2016-May-15 08:34N 44°24' E 008°54'0 0.0
2016-May-15 07:34N 44°24' E 008°54'0 0.0
2016-May-15 06:34N 44°24' E 008°54'0 0.0
2016-May-15 05:34N 44°24' E 008°54'0 0.0
2016-May-15 04:34N 44°24' E 008°54'0 0.0
2016-May-15 03:34N 44°24' E 008°54'0 0.0
2016-May-15 02:34N 44°24' E 008°54'0 0.0
2016-May-15 01:34N 44°24' E 008°54'0 0.0
2016-May-15 00:33N 44°24' E 008°54'0 0.0
2016-May-14 23:34N 44°24' E 008°54'0 0.0
2016-May-14 22:33N 44°24' E 008°54'0 0.0
2016-May-14 21:33N 44°24' E 008°54'  

Dump ship's entire track history